Someren, Netherlands
Current Conditions -  °F | °C
As of 2:45 AM on Saturday 22 Nov 2014 (Local Time) from EHEH Reporting Station
Haze Haze  
Wind Chill: 39°   Ceiling: 12000
Heat Index: 39°   Visibility: 4mi
Dew Point: 37°   Wind: 3mph
Humidity: 93%   Direction: 130°SE
Pressure: 30.06"   Gusts: NA
Location:  51.39°N, 5.71°E
Report Text: EHEH 220145Z AUTO 13003KT 7000 BR SCT097 BKN120 BKN220 04/03 Q1018 WHT
Loading
Personal Weather Stations






























Interactive Weather Map New forecast layout! Learn more

10-Day Weather Forecast

Advertisements
Track Severe Weather on mobile